createdAt,value
2022-10-09T00:04:13.999Z,1.70
2022-10-09T00:09:18.849Z,1.80
2022-10-09T00:14:22.153Z,1.50
2022-10-09T00:19:25.570Z,1.90
2022-10-09T00:24:28.888Z,2.00
2022-10-09T00:29:32.909Z,1.60
2022-10-09T00:34:36.217Z,1.70
2022-10-09T00:39:39.732Z,1.20
2022-10-09T00:45:01.122Z,2.10
2022-10-09T00:50:22.711Z,1.50
2022-10-09T00:55:29.195Z,1.50
2022-10-09T01:00:33.224Z,1.20
2022-10-09T01:06:35.869Z,1.30
2022-10-09T01:11:55.342Z,1.10
2022-10-09T01:17:44.297Z,1.70
2022-10-09T01:23:11.981Z,1.40
2022-10-09T01:28:17.307Z,1.10
2022-10-09T01:33:20.650Z,1.20
2022-10-09T01:38:25.388Z,1.10
2022-10-09T01:43:28.676Z,1.40
2022-10-09T01:48:32.737Z,1.60
2022-10-09T01:53:37.446Z,1.30
2022-10-09T01:59:07.452Z,1.70
2022-10-09T02:04:14.930Z,1.80
2022-10-09T02:09:18.977Z,1.20
2022-10-09T02:14:22.831Z,0.90
2022-10-09T02:19:43.294Z,1.60
2022-10-09T02:24:47.774Z,1.40
2022-10-09T02:29:52.476Z,1.30
2022-10-09T02:34:55.919Z,1.80
2022-10-09T02:39:59.203Z,1.50
2022-10-09T02:45:02.615Z,1.70
2022-10-09T02:50:07.277Z,1.40
2022-10-09T02:55:10.676Z,3.10
2022-10-09T03:00:15.179Z,7.70
2022-10-09T03:05:18.671Z,9.20
2022-10-09T03:10:22.450Z,2.70
2022-10-09T03:15:25.762Z,2.30
2022-10-09T03:20:31.880Z,2.20
2022-10-09T03:25:35.170Z,1.50
2022-10-09T03:30:42.187Z,1.40
2022-10-09T03:35:50.381Z,1.10
2022-10-09T03:40:54.830Z,1.50
2022-10-09T03:46:01.094Z,1.50
2022-10-09T03:51:05.100Z,1.70
2022-10-09T03:56:08.532Z,1.40
2022-10-09T04:01:11.935Z,1.50
2022-10-09T04:06:15.904Z,1.20
2022-10-09T04:11:19.391Z,1.70
2022-10-09T04:16:22.696Z,1.60
2022-10-09T04:21:26.112Z,1.60
2022-10-09T04:26:29.426Z,1.30
2022-10-09T04:31:32.868Z,1.60
2022-10-09T04:36:36.187Z,1.60
2022-10-09T04:41:39.464Z,2.40
2022-10-09T04:46:43.097Z,1.60
2022-10-09T04:51:46.502Z,1.10
2022-10-09T04:56:49.805Z,1.50
2022-10-09T05:01:53.174Z,1.60
2022-10-09T05:06:56.639Z,1.30
2022-10-09T05:12:00.255Z,1.70
2022-10-09T05:17:14.592Z,1.20
2022-10-09T05:22:18.343Z,1.60
2022-10-09T05:27:21.654Z,1.30
2022-10-09T05:32:24.980Z,2.50
2022-10-09T05:37:28.206Z,2.20
2022-10-09T05:42:31.597Z,1.30
2022-10-09T05:47:35.115Z,1.50
2022-10-09T05:52:40.297Z,2.00
2022-10-09T05:57:43.657Z,1.60
2022-10-09T06:02:47.191Z,2.20
2022-10-09T06:07:51.019Z,1.90
2022-10-09T06:12:54.231Z,2.20
2022-10-09T06:17:58.045Z,2.90
2022-10-09T06:23:01.356Z,3.10
2022-10-09T06:28:04.873Z,5.50
2022-10-09T06:33:08.391Z,3.50
2022-10-09T06:38:11.910Z,2.50
2022-10-09T06:43:15.232Z,1.60
2022-10-09T06:48:18.836Z,1.30
2022-10-09T06:53:22.146Z,1.90
2022-10-09T06:58:26.161Z,1.50
2022-10-09T07:03:29.741Z,1.30
2022-10-09T07:08:34.082Z,2.00
2022-10-09T07:13:38.097Z,2.40
2022-10-09T07:18:41.576Z,1.40
2022-10-09T07:23:44.992Z,1.70
2022-10-09T07:28:49.465Z,0.80
2022-10-09T07:33:56.834Z,1.30
2022-10-09T07:39:00.660Z,1.20
2022-10-09T07:44:04.070Z,2.40
2022-10-09T07:49:07.537Z,1.20
2022-10-09T07:54:10.802Z,1.20
2022-10-09T07:59:16.459Z,2.50
2022-10-09T08:04:19.975Z,1.00
2022-10-09T08:09:23.492Z,5.50
2022-10-09T08:14:28.235Z,5.60
2022-10-09T08:19:31.680Z,1.30
2022-10-09T08:24:34.979Z,0.90
2022-10-09T08:29:40.394Z,1.00
2022-10-09T08:34:43.947Z,0.90
2022-10-09T08:39:47.222Z,1.00
2022-10-09T08:44:50.801Z,1.50
2022-10-09T08:50:02.374Z,1.40
2022-10-09T08:55:26.167Z,1.20
2022-10-09T09:00:45.250Z,1.10
2022-10-09T09:06:26.350Z,0.90
2022-10-09T09:12:19.480Z,1.10
2022-10-09T09:17:56.328Z,1.10
2022-10-09T09:23:02.203Z,2.30
2022-10-09T09:28:29.214Z,1.80
2022-10-09T09:33:45.071Z,1.10
2022-10-09T09:39:28.623Z,1.10
2022-10-09T09:44:17.497Z,1.00
2022-10-09T09:49:27.459Z,1.50
2022-10-09T09:54:31.512Z,1.20
2022-10-09T09:59:40.810Z,1.30
2022-10-09T10:04:53.261Z,1.00
2022-10-09T10:10:27.824Z,1.30
2022-10-09T10:15:34.819Z,0.90
2022-10-09T10:21:17.223Z,5.90
2022-10-09T10:26:42.322Z,4.90
2022-10-09T10:32:00.330Z,5.50
2022-10-09T10:37:15.711Z,3.90
2022-10-09T10:42:47.378Z,2.30
2022-10-09T10:47:56.532Z,1.90
2022-10-09T10:53:46.233Z,3.20
2022-10-09T10:59:26.615Z,2.70
2022-10-09T11:04:51.193Z,1.50
2022-10-09T11:10:05.859Z,1.40
2022-10-09T11:15:22.695Z,1.70
2022-10-09T11:20:59.566Z,1.90
2022-10-09T11:26:27.208Z,1.10
2022-10-09T11:31:53.614Z,0.80
2022-10-09T11:36:59.944Z,1.20
2022-10-09T11:42:04.893Z,0.70
2022-10-09T11:47:45.173Z,1.00
2022-10-09T11:53:11.377Z,0.60
2022-10-09T11:58:26.175Z,1.50
2022-10-09T12:03:37.296Z,2.00
2022-10-09T12:09:07.540Z,4.30
2022-10-09T12:14:23.854Z,1.80
2022-10-09T12:19:38.329Z,2.20
2022-10-09T12:24:47.173Z,1.50
2022-10-09T12:30:13.496Z,1.40
2022-10-09T12:35:29.119Z,2.10
2022-10-09T12:40:34.294Z,1.80
2022-10-09T12:45:44.892Z,1.00
2022-10-09T12:50:49.295Z,1.30
2022-10-09T12:56:01.473Z,1.10
2022-10-09T13:01:08.251Z,0.60
2022-10-09T13:06:19.304Z,0.90
2022-10-09T13:11:41.164Z,1.90
2022-10-09T13:16:47.816Z,1.10
2022-10-09T13:22:25.451Z,1.50
2022-10-09T13:27:35.182Z,0.80
2022-10-09T13:32:38.527Z,2.20
2022-10-09T13:37:42.461Z,1.90
2022-10-09T13:42:58.463Z,0.90
2022-10-09T13:48:02.186Z,0.90
2022-10-09T13:53:05.908Z,0.70
2022-10-09T13:58:09.730Z,0.70
2022-10-09T14:03:13.447Z,1.00
2022-10-09T14:08:16.812Z,0.90
2022-10-09T14:13:20.993Z,1.00
2022-10-09T14:18:24.612Z,0.80
2022-10-09T14:23:28.027Z,0.80
2022-10-09T14:28:31.918Z,0.80
2022-10-09T14:33:35.467Z,2.10
2022-10-09T14:38:42.981Z,1.90
2022-10-09T14:43:48.239Z,2.50
2022-10-09T14:48:55.234Z,1.10
2022-10-09T14:53:58.955Z,1.50
2022-10-09T14:59:03.325Z,2.10
2022-10-09T15:04:07.099Z,1.90
2022-10-09T15:09:11.143Z,1.00
2022-10-09T15:14:14.460Z,1.00
2022-10-09T15:19:17.970Z,1.20
2022-10-09T15:24:21.205Z,1.20
2022-10-09T15:29:24.801Z,1.00
2022-10-09T15:34:29.549Z,1.40
2022-10-09T15:39:34.197Z,1.40
2022-10-09T15:44:37.667Z,3.20
2022-10-09T15:49:44.871Z,4.60
2022-10-09T15:54:48.317Z,2.10
2022-10-09T15:59:51.731Z,2.00
2022-10-09T16:04:55.007Z,2.40
2022-10-09T16:09:59.274Z,1.80
2022-10-09T16:15:02.895Z,1.90
2022-10-09T16:20:07.717Z,2.50
2022-10-09T16:25:11.564Z,2.20
2022-10-09T16:30:14.978Z,2.00
2022-10-09T16:35:18.495Z,2.80
2022-10-09T16:40:32.687Z,2.40
2022-10-09T16:45:45.455Z,1.70
2022-10-09T16:50:48.913Z,3.00
2022-10-09T16:55:52.230Z,4.90
2022-10-09T17:01:03.901Z,6.50
2022-10-09T17:06:13.910Z,6.60
2022-10-09T17:11:18.720Z,9.80
2022-10-09T17:16:25.954Z,6.90
2022-10-09T17:21:34.149Z,8.10
2022-10-09T17:26:38.026Z,7.90
2022-10-09T17:31:41.627Z,5.80
2022-10-09T17:36:45.741Z,19.30
2022-10-09T17:41:49.265Z,28.70
2022-10-09T17:46:53.061Z,11.50
2022-10-09T17:51:56.432Z,9.60
2022-10-09T17:57:01.574Z,9.90
2022-10-09T18:02:06.030Z,11.40
2022-10-09T18:07:09.363Z,12.50
2022-10-09T18:12:12.717Z,8.70
2022-10-09T18:17:16.033Z,7.90
2022-10-09T18:22:19.439Z,10.60
2022-10-09T18:27:24.188Z,6.60
2022-10-09T18:32:27.600Z,6.80
2022-10-09T18:37:30.923Z,8.10
2022-10-09T18:42:36.065Z,7.90
2022-10-09T18:47:40.815Z,7.40
2022-10-09T18:52:45.559Z,4.50
2022-10-09T18:57:49.071Z,6.60
2022-10-09T19:02:52.486Z,6.50
2022-10-09T19:07:55.971Z,7.30
2022-10-09T19:12:59.418Z,6.60
2022-10-09T19:18:02.917Z,6.60
2022-10-09T19:23:06.197Z,7.00
2022-10-09T19:28:09.535Z,7.90
2022-10-09T19:33:14.065Z,8.80
2022-10-09T19:38:18.925Z,10.60
2022-10-09T19:43:24.478Z,8.50
2022-10-09T19:48:27.814Z,8.80
2022-10-09T19:53:31.290Z,8.40
2022-10-09T19:58:34.548Z,7.20
2022-10-09T20:03:39.840Z,10.40
2022-10-09T20:08:45.344Z,10.00
2022-10-09T20:13:55.564Z,8.50
2022-10-09T20:19:02.731Z,10.60
2022-10-09T20:24:06.929Z,9.70
2022-10-09T20:29:10.595Z,8.20
2022-10-09T20:34:13.835Z,7.40
2022-10-09T20:39:19.713Z,8.60
2022-10-09T20:44:23.392Z,8.40
2022-10-09T20:49:27.029Z,7.60
2022-10-09T20:54:30.709Z,7.90
2022-10-09T20:59:34.155Z,8.70
2022-10-09T21:04:37.566Z,7.00
2022-10-09T21:09:40.977Z,8.10
2022-10-09T21:14:44.400Z,9.60
2022-10-09T21:19:50.726Z,8.10
2022-10-09T21:24:54.085Z,7.30
2022-10-09T21:29:57.398Z,6.40
2022-10-09T21:35:00.711Z,7.20
2022-10-09T21:40:05.342Z,6.60
2022-10-09T21:45:09.855Z,10.50
2022-10-09T21:50:13.201Z,5.30
2022-10-09T21:55:16.852Z,5.00
2022-10-09T22:00:21.064Z,4.20
2022-10-09T22:05:24.479Z,4.00
2022-10-09T22:10:27.870Z,5.00
2022-10-09T22:15:31.197Z,4.00
2022-10-09T22:20:39.807Z,4.40
2022-10-09T22:25:43.240Z,3.10
2022-10-09T22:30:46.491Z,3.10
2022-10-09T22:35:49.764Z,3.30
2022-10-09T22:40:53.117Z,5.40
2022-10-09T22:45:56.507Z,2.90
2022-10-09T22:51:03.336Z,5.20
2022-10-09T22:56:15.355Z,3.90
2022-10-09T23:01:31.749Z,3.90
2022-10-09T23:06:35.532Z,4.70
2022-10-09T23:11:39.142Z,5.50
2022-10-09T23:16:43.413Z,3.60
2022-10-09T23:21:47.520Z,3.20
2022-10-09T23:26:52.234Z,4.20
2022-10-09T23:31:55.545Z,4.00
2022-10-09T23:36:58.955Z,4.30
2022-10-09T23:42:02.248Z,3.10
2022-10-09T23:47:05.612Z,3.10
2022-10-09T23:52:08.984Z,2.50
2022-10-09T23:57:12.340Z,2.80
